Airfield :







YOU CAN JOIN US ON...

 
LOGIN :

Register | Disclaimer

   EN    FR    IT 

 









Legend :    VFR   Marginal VFR   IFR   Intensive IFR   Very Intensive IFR
Visi :
Ceiling :
>= 8 km
>= 3000ft
5 to 8 km
1000 to 3000 ft
1500m to 5 km
500 to 1000 ft
800 to 1500m
200 to 500 ft
< 800m
< 200 ft
Symbols :   Thunderstorms  Fog  Heavy snow  Heavy precipitations  Wind > 20 kt







- Airport Elevation : 121 ft
- IATA code : YBX


CYBX - Lourdes De Blanc Sablon

CURRENT METAR :
  • 171255Z 09004KT 3/4SM -DZ BR OVC003 12/12 A2983 RMK FG6ST2 VIS S-W 2 SLP104

EXPIRED METARs :
  • 171235Z 10007KT 1/4SM -DZ FG VV002 12/12 A2984 RMK FG8 SLP106
  • 171200Z 17003KT 3/4SM -DZ BR OVC002 12/12 A2984 RMK FG5ST3 SLP108
  • 171151Z 18003KT 160V230 1SM -DZ BR OVC002 12/12 A2984 RMK FG4ST4 SLP108
  • 171129Z 22004KT 1/2SM -DZ FG VV002 12/12 A2985 RMK FG8 SLP111
  • 171100Z 23005KT 3/4SM -DZ BR OVC003 12/12 A2986 RMK FG5ST3 SLP113
  • 171018Z 20003KT 160V260 1SM -DZ BR OVC003 12/12 A2985 RMK FG4ST4 SLP111

TAF TAF CYBX
Valid from the 17 at 08:00 until the 17 at 20:00 UTC


170738Z 1708/1720 VRB03KT 1/4SM -DZ FG VV001
TEMPO 1708/1716 1SM BR OVC003
FM171600 19008KT P6SM FEW012 SCT140 RMK NXT FCST BY 171400Z
CZUL FIR / North America



MET'MAP, your aeronautical weather chart ! - Copyright ORBIFLY December 2007 - Disclaimer

ORBIFLY MET'MAP TEAM :

Programming & Development : Alexandra Zaïnal
Concept & Development : Baudouin d'Aumeries
Co-Development & Prog : Marc-Olivier Méhu
Technical & hardware support : Manuel Goepfert

Contact : metmap@orbifly.com




SOURCES & CREDITS :

   NOAA